sensor_id;sensor_type;location;lat;lon;timestamp;pressure;altitude;pressure_sealevel;temperature;humidity
71465;BME280;59274;49.874;9.154;2023-11-22T00:01:10;100968.72;;;5.21;100.00
71465;BME280;59274;49.874;9.154;2023-11-22T00:03:36;100967.13;;;5.20;100.00
71465;BME280;59274;49.874;9.154;2023-11-22T00:06:01;100969.81;;;5.20;100.00
71465;BME280;59274;49.874;9.154;2023-11-22T00:08:27;100965.88;;;5.08;100.00
71465;BME280;59274;49.874;9.154;2023-11-22T00:10:54;100964.91;;;5.04;100.00
71465;BME280;59274;49.874;9.154;2023-11-22T00:13:20;100968.38;;;5.05;100.00
71465;BME280;59274;49.874;9.154;2023-11-22T00:15:45;100971.72;;;5.02;100.00
71465;BME280;59274;49.874;9.154;2023-11-22T00:18:10;100962.53;;;4.94;100.00
71465;BME280;59274;49.874;9.154;2023-11-22T00:20:36;100968.72;;;4.95;100.00
71465;BME280;59274;49.874;9.154;2023-11-22T00:23:02;100964.13;;;4.95;100.00
71465;BME280;59274;49.874;9.154;2023-11-22T00:25:28;100976.97;;;4.90;100.00
71465;BME280;59274;49.874;9.154;2023-11-22T00:27:54;100975.03;;;4.82;100.00
71465;BME280;59274;49.874;9.154;2023-11-22T00:30:20;100974.25;;;4.72;100.00
71465;BME280;59274;49.874;9.154;2023-11-22T00:43:02;101004.50;;;4.30;100.00
71465;BME280;59274;49.874;9.154;2023-11-22T00:45:30;101011.78;;;4.29;100.00
71465;BME280;59274;49.874;9.154;2023-11-22T00:47:56;101022.78;;;4.19;100.00
71465;BME280;59274;49.874;9.154;2023-11-22T00:50:21;101017.75;;;4.18;100.00
71465;BME280;59274;49.874;9.154;2023-11-22T00:52:47;101027.56;;;4.22;100.00
71465;BME280;59274;49.874;9.154;2023-11-22T00:55:13;101020.25;;;4.14;100.00
71465;BME280;59274;49.874;9.154;2023-11-22T00:57:38;101024.16;;;4.08;100.00
71465;BME280;59274;49.874;9.154;2023-11-22T01:00:05;101026.84;;;4.08;100.00
71465;BME280;59274;49.874;9.154;2023-11-22T01:02:34;101030.16;;;4.05;100.00
71465;BME280;59274;49.874;9.154;2023-11-22T01:04:59;101030.00;;;4.02;100.00
71465;BME280;59274;49.874;9.154;2023-11-22T01:07:25;101039.16;;;4.01;100.00
71465;BME280;59274;49.874;9.154;2023-11-22T01:09:50;101049.19;;;3.86;100.00
71465;BME280;59274;49.874;9.154;2023-11-22T01:12:16;101046.13;;;3.79;100.00
71465;BME280;59274;49.874;9.154;2023-11-22T01:14:41;101047.72;;;3.80;100.00
71465;BME280;59274;49.874;9.154;2023-11-22T01:17:06;101045.47;;;3.74;100.00
71465;BME280;59274;49.874;9.154;2023-11-22T01:19:33;101047.38;;;3.73;100.00
71465;BME280;59274;49.874;9.154;2023-11-22T01:21:59;101051.88;;;3.64;100.00
71465;BME280;59274;49.874;9.154;2023-11-22T01:24:24;101056.59;;;3.59;100.00
71465;BME280;59274;49.874;9.154;2023-11-22T01:26:51;101057.88;;;3.61;100.00
71465;BME280;59274;49.874;9.154;2023-11-22T01:29:16;101060.38;;;3.58;100.00
71465;BME280;59274;49.874;9.154;2023-11-22T01:31:42;101062.53;;;3.55;100.00
71465;BME280;59274;49.874;9.154;2023-11-22T01:34:09;101049.13;;;3.55;100.00
71465;BME280;59274;49.874;9.154;2023-11-22T01:36:34;101057.69;;;3.58;100.00
71465;BME280;59274;49.874;9.154;2023-11-22T01:38:59;101052.50;;;3.61;100.00
71465;BME280;59274;49.874;9.154;2023-11-22T01:41:25;101044.81;;;3.68;100.00
71465;BME280;59274;49.874;9.154;2023-11-22T01:43:50;101056.66;;;3.67;100.00
71465;BME280;59274;49.874;9.154;2023-11-22T01:46:24;101059.75;;;3.61;100.00
71465;BME280;59274;49.874;9.154;2023-11-22T01:48:51;101058.16;;;3.60;100.00
71465;BME280;59274;49.874;9.154;2023-11-22T01:51:21;101060.06;;;3.59;100.00
71465;BME280;59274;49.874;9.154;2023-11-22T01:53:47;101056.09;;;3.57;100.00
71465;BME280;59274;49.874;9.154;2023-11-22T01:56:14;101070.56;;;3.47;100.00
71465;BME280;59274;49.874;9.154;2023-11-22T01:58:41;101066.06;;;3.42;100.00
71465;BME280;59274;49.874;9.154;2023-11-22T02:01:07;101064.03;;;3.39;100.00
71465;BME280;59274;49.874;9.154;2023-11-22T02:03:34;101057.84;;;3.39;100.00
71465;BME280;59274;49.874;9.154;2023-11-22T02:05:59;101066.63;;;3.31;100.00
71465;BME280;59274;49.874;9.154;2023-11-22T02:08:25;101079.13;;;3.35;100.00
71465;BME280;59274;49.874;9.154;2023-11-22T02:10:59;101084.44;;;3.13;100.00
71465;BME280;59274;49.874;9.154;2023-11-22T02:13:25;101078.31;;;2.99;100.00
71465;BME280;59274;49.874;9.154;2023-11-22T02:15:52;101091.25;;;2.97;100.00
71465;BME280;59274;49.874;9.154;2023-11-22T02:18:21;101092.84;;;2.98;100.00
71465;BME280;59274;49.874;9.154;2023-11-22T02:20:51;101093.53;;;3.03;100.00
71465;BME280;59274;49.874;9.154;2023-11-22T02:23:16;101095.13;;;3.04;100.00
71465;BME280;59274;49.874;9.154;2023-11-22T02:25:42;101093.72;;;2.93;100.00
71465;BME280;59274;49.874;9.154;2023-11-22T02:28:08;101112.72;;;2.83;100.00
71465;BME280;59274;49.874;9.154;2023-11-22T02:30:34;101123.75;;;2.82;100.00
71465;BME280;59274;49.874;9.154;2023-11-22T02:33:00;101109.81;;;2.80;100.00
71465;BME280;59274;49.874;9.154;2023-11-22T02:35:26;101122.84;;;2.86;100.00
71465;BME280;59274;49.874;9.154;2023-11-22T02:37:52;101119.28;;;2.77;100.00
71465;BME280;59274;49.874;9.154;2023-11-22T02:40:19;101122.66;;;2.83;100.00
71465;BME280;59274;49.874;9.154;2023-11-22T02:42:49;101125.50;;;2.86;100.00
71465;BME280;59274;49.874;9.154;2023-11-22T02:45:19;101125.91;;;2.80;100.00
71465;BME280;59274;49.874;9.154;2023-11-22T02:47:45;101116.59;;;2.77;100.00
71465;BME280;59274;49.874;9.154;2023-11-22T02:50:14;101115.06;;;2.71;100.00
71465;BME280;59274;49.874;9.154;2023-11-22T02:52:40;101114.28;;;2.57;100.00
71465;BME280;59274;49.874;9.154;2023-11-22T02:55:06;101114.28;;;2.57;100.00
71465;BME280;59274;49.874;9.154;2023-11-22T02:57:32;101116.66;;;2.58;100.00
71465;BME280;59274;49.874;9.154;2023-11-22T02:59:58;101109.03;;;2.52;100.00
71465;BME280;59274;49.874;9.154;2023-11-22T03:02:23;101117.84;;;2.52;100.00
71465;BME280;59274;49.874;9.154;2023-11-22T03:04:50;101112.50;;;2.52;100.00
71465;BME280;59274;49.874;9.154;2023-11-22T03:07:15;101111.69;;;2.52;100.00
71465;BME280;59274;49.874;9.154;2023-11-22T03:09:41;101109.31;;;2.50;100.00
71465;BME280;59274;49.874;9.154;2023-11-22T03:12:08;101118.25;;;2.46;100.00
71465;BME280;59274;49.874;9.154;2023-11-22T03:14:35;101124.59;;;2.50;100.00
71465;BME280;59274;49.874;9.154;2023-11-22T03:17:00;101116.16;;;2.43;100.00
71465;BME280;59274;49.874;9.154;2023-11-22T03:19:26;101125.28;;;2.42;100.00
71465;BME280;59274;49.874;9.154;2023-11-22T03:21:51;101143.03;;;2.38;100.00
71465;BME280;59274;49.874;9.154;2023-11-22T03:24:17;101143.63;;;2.34;100.00
71465;BME280;59274;49.874;9.154;2023-11-22T03:26:42;101146.41;;;2.29;100.00
71465;BME280;59274;49.874;9.154;2023-11-22T03:29:08;101152.78;;;2.33;100.00
71465;BME280;59274;49.874;9.154;2023-11-22T03:31:33;101153.16;;;2.27;100.00
71465;BME280;59274;49.874;9.154;2023-11-22T03:33:58;101157.72;;;2.26;100.00
71465;BME280;59274;49.874;9.154;2023-11-22T03:36:24;101163.38;;;2.25;100.00
71465;BME280;59274;49.874;9.154;2023-11-22T03:38:53;101166.84;;;2.25;100.00
71465;BME280;59274;49.874;9.154;2023-11-22T03:41:18;101161.78;;;2.24;100.00
71465;BME280;59274;49.874;9.154;2023-11-22T03:43:44;101150.34;;;2.18;100.00
71465;BME280;59274;49.874;9.154;2023-11-22T03:46:09;101161.03;;;2.05;100.00
71465;BME280;59274;49.874;9.154;2023-11-22T03:48:36;101165.22;;;2.11;100.00
71465;BME280;59274;49.874;9.154;2023-11-22T03:51:02;101166.19;;;2.15;100.00
71465;BME280;59274;49.874;9.154;2023-11-22T03:53:27;101177.44;;;2.17;100.00
71465;BME280;59274;49.874;9.154;2023-11-22T03:55:53;101189.22;;;2.16;100.00
71465;BME280;59274;49.874;9.154;2023-11-22T03:58:18;101189.84;;;2.13;100.00
71465;BME280;59274;49.874;9.154;2023-11-22T04:00:47;101189.03;;;2.12;100.00
71465;BME280;59274;49.874;9.154;2023-11-22T04:03:12;101190.41;;;2.10;100.00
71465;BME280;59274;49.874;9.154;2023-11-22T04:05:38;101203.00;;;2.09;100.00
71465;BME280;59274;49.874;9.154;2023-11-22T04:08:04;101212.41;;;2.07;100.00
71465;BME280;59274;49.874;9.154;2023-11-22T04:10:29;101214.78;;;2.08;100.00
71465;BME280;59274;49.874;9.154;2023-11-22T04:12:56;101224.72;;;2.08;100.00
71465;BME280;59274;49.874;9.154;2023-11-22T04:15:22;101238.91;;;1.89;100.00
71465;BME280;59274;49.874;9.154;2023-11-22T04:17:47;101240.06;;;1.83;100.00
71465;BME280;59274;49.874;9.154;2023-11-22T04:20:14;101247.88;;;1.80;100.00
71465;BME280;59274;49.874;9.154;2023-11-22T04:22:41;101252.06;;;1.86;100.00
71465;BME280;59274;49.874;9.154;2023-11-22T04:25:07;101259.47;;;1.94;100.00
71465;BME280;59274;49.874;9.154;2023-11-22T04:27:34;101266.16;;;1.96;100.00
71465;BME280;59274;49.874;9.154;2023-11-22T04:29:59;101268.97;;;2.05;100.00
71465;BME280;59274;49.874;9.154;2023-11-22T04:32:25;101262.31;;;2.03;100.00
71465;BME280;59274;49.874;9.154;2023-11-22T04:34:50;101273.09;;;1.98;100.00
71465;BME280;59274;49.874;9.154;2023-11-22T04:37:15;101277.13;;;1.76;100.00
71465;BME280;59274;49.874;9.154;2023-11-22T04:39:41;101287.88;;;1.71;100.00
71465;BME280;59274;49.874;9.154;2023-11-22T04:42:06;101290.41;;;1.63;100.00
71465;BME280;59274;49.874;9.154;2023-11-22T04:44:32;101290.41;;;1.63;100.00
71465;BME280;59274;49.874;9.154;2023-11-22T04:46:58;101284.31;;;1.57;100.00
71465;BME280;59274;49.874;9.154;2023-11-22T04:49:26;101294.91;;;1.43;100.00
71465;BME280;59274;49.874;9.154;2023-11-22T04:51:51;101295.69;;;1.44;100.00
71465;BME280;59274;49.874;9.154;2023-11-22T04:54:17;101290.13;;;1.40;100.00
71465;BME280;59274;49.874;9.154;2023-11-22T04:56:43;101292.00;;;1.40;100.00
71465;BME280;59274;49.874;9.154;2023-11-22T04:59:09;101291.28;;;1.34;100.00
71465;BME280;59274;49.874;9.154;2023-11-22T05:01:34;101297.75;;;1.28;100.00
71465;BME280;59274;49.874;9.154;2023-11-22T05:04:00;101298.53;;;1.29;100.00
71465;BME280;59274;49.874;9.154;2023-11-22T05:06:26;101299.59;;;1.33;100.00
71465;BME280;59274;49.874;9.154;2023-11-22T05:08:52;101296.09;;;1.32;100.00
71465;BME280;59274;49.874;9.154;2023-11-22T05:11:20;101294.69;;;1.40;100.00
71465;BME280;59274;49.874;9.154;2023-11-22T05:13:45;101303.16;;;1.23;100.00
71465;BME280;59274;49.874;9.154;2023-11-22T05:16:11;101294.94;;;1.14;100.00
71465;BME280;59274;49.874;9.154;2023-11-22T05:18:40;101308.31;;;1.14;100.00
71465;BME280;59274;49.874;9.154;2023-11-22T05:21:11;101307.03;;;1.12;100.00
71465;BME280;59274;49.874;9.154;2023-11-22T05:23:36;101308.66;;;1.08;100.00
71465;BME280;59274;49.874;9.154;2023-11-22T05:26:03;101312.38;;;1.07;100.00
71465;BME280;59274;49.874;9.154;2023-11-22T05:28:30;101310.56;;;1.02;100.00
71465;BME280;59274;49.874;9.154;2023-11-22T05:30:56;101315.50;;;0.90;100.00
71465;BME280;59274;49.874;9.154;2023-11-22T05:33:21;101320.28;;;0.93;100.00
71465;BME280;59274;49.874;9.154;2023-11-22T05:35:47;101327.28;;;0.89;100.00
71465;BME280;59274;49.874;9.154;2023-11-22T05:38:13;101328.03;;;0.95;100.00
71465;BME280;59274;49.874;9.154;2023-11-22T05:40:39;101337.91;;;0.99;100.00
71465;BME280;59274;49.874;9.154;2023-11-22T05:43:04;101341.06;;;1.01;100.00
71465;BME280;59274;49.874;9.154;2023-11-22T05:45:30;101354.72;;;1.00;100.00
71465;BME280;59274;49.874;9.154;2023-11-22T05:47:55;101358.72;;;1.02;100.00
71465;BME280;59274;49.874;9.154;2023-11-22T05:50:21;101371.75;;;1.09;100.00
71465;BME280;59274;49.874;9.154;2023-11-22T05:52:46;101373.09;;;1.11;100.00
71465;BME280;59274;49.874;9.154;2023-11-22T05:55:12;101370.47;;;1.06;100.00
71465;BME280;59274;49.874;9.154;2023-11-22T05:57:40;101374.72;;;1.07;100.00
71465;BME280;59274;49.874;9.154;2023-11-22T06:00:07;101364.38;;;0.96;100.00
71465;BME280;59274;49.874;9.154;2023-11-22T06:02:33;101374.84;;;0.92;100.00
71465;BME280;59274;49.874;9.154;2023-11-22T06:04:58;101377.56;;;0.87;100.00
71465;BME280;59274;49.874;9.154;2023-11-22T06:07:24;101381.50;;;0.95;100.00
71465;BME280;59274;49.874;9.154;2023-11-22T06:09:49;101375.88;;;0.96;100.00
71465;BME280;59274;49.874;9.154;2023-11-22T06:12:15;101381.47;;;1.00;100.00
71465;BME280;59274;49.874;9.154;2023-11-22T06:14:40;101385.22;;;0.99;100.00
71465;BME280;59274;49.874;9.154;2023-11-22T06:17:06;101387.53;;;1.10;100.00
71465;BME280;59274;49.874;9.154;2023-11-22T06:19:31;101383.75;;;1.16;100.00
71465;BME280;59274;49.874;9.154;2023-11-22T06:21:56;101389.81;;;1.27;100.00
71465;BME280;59274;49.874;9.154;2023-11-22T06:24:22;101401.53;;;1.31;100.00
71465;BME280;59274;49.874;9.154;2023-11-22T06:26:47;101398.59;;;1.33;100.00
71465;BME280;59274;49.874;9.154;2023-11-22T06:29:13;101402.88;;;1.34;100.00
71465;BME280;59274;49.874;9.154;2023-11-22T06:31:39;101416.19;;;1.39;100.00
71465;BME280;59274;49.874;9.154;2023-11-22T06:34:05;101410.16;;;1.52;100.00
71465;BME280;59274;49.874;9.154;2023-11-22T06:36:31;101420.81;;;1.57;100.00
71465;BME280;59274;49.874;9.154;2023-11-22T06:38:56;101430.22;;;1.54;100.00
71465;BME280;59274;49.874;9.154;2023-11-22T06:41:22;101419.81;;;1.53;100.00
71465;BME280;59274;49.874;9.154;2023-11-22T06:43:47;101427.84;;;1.53;100.00
71465;BME280;59274;49.874;9.154;2023-11-22T06:46:13;101439.34;;;1.53;100.00
71465;BME280;59274;49.874;9.154;2023-11-22T06:48:41;101431.59;;;1.52;100.00
71465;BME280;59274;49.874;9.154;2023-11-22T06:51:08;101440.66;;;1.56;100.00
71465;BME280;59274;49.874;9.154;2023-11-22T06:53:34;101435.31;;;1.56;100.00
71465;BME280;59274;49.874;9.154;2023-11-22T06:56:00;101438.28;;;1.49;100.00
71465;BME280;59274;49.874;9.154;2023-11-22T06:58:26;101448.69;;;1.56;100.00
71465;BME280;59274;49.874;9.154;2023-11-22T07:00:51;101458.31;;;1.57;100.00
71465;BME280;59274;49.874;9.154;2023-11-22T07:03:17;101457.16;;;1.68;100.00
71465;BME280;59274;49.874;9.154;2023-11-22T07:05:43;101460.91;;;1.67;100.00
71465;BME280;59274;49.874;9.154;2023-11-22T07:08:08;101467.31;;;1.66;100.00
71465;BME280;59274;49.874;9.154;2023-11-22T07:10:33;101471.09;;;1.65;100.00
71465;BME280;59274;49.874;9.154;2023-11-22T07:13:00;101474.34;;;1.62;100.00
71465;BME280;59274;49.874;9.154;2023-11-22T07:15:27;101478.03;;;1.66;100.00
71465;BME280;59274;49.874;9.154;2023-11-22T07:17:52;101469.44;;;1.69;100.00
71465;BME280;59274;49.874;9.154;2023-11-22T07:20:19;101467.84;;;1.68;100.00
71465;BME280;59274;49.874;9.154;2023-11-22T07:22:45;101477.25;;;1.66;100.00
71465;BME280;59274;49.874;9.154;2023-11-22T07:25:10;101468.72;;;1.58;100.00
71465;BME280;59274;49.874;9.154;2023-11-22T07:27:45;101469.84;;;1.52;100.00
71465;BME280;59274;49.874;9.154;2023-11-22T07:30:15;101476.34;;;1.46;100.00
71465;BME280;59274;49.874;9.154;2023-11-22T07:32:41;101474.50;;;1.42;100.00
71465;BME280;59274;49.874;9.154;2023-11-22T07:35:07;101466.00;;;1.35;100.00
71465;BME280;59274;49.874;9.154;2023-11-22T07:37:37;101466.06;;;1.25;100.00
71465;BME280;59274;49.874;9.154;2023-11-22T07:40:08;101464.53;;;1.18;100.00
71465;BME280;59274;49.874;9.154;2023-11-22T07:42:38;101465.31;;;1.19;100.00
71465;BME280;59274;49.874;9.154;2023-11-22T07:45:04;101470.63;;;1.24;100.00
71465;BME280;59274;49.874;9.154;2023-11-22T07:47:29;101464.25;;;1.15;100.00
71465;BME280;59274;49.874;9.154;2023-11-22T07:49:55;101465.06;;;1.15;100.00
71465;BME280;59274;49.874;9.154;2023-11-22T07:52:24;101464.75;;;1.22;100.00
71465;BME280;59274;49.874;9.154;2023-11-22T07:54:58;101472.81;;;1.17;100.00
71465;BME280;59274;49.874;9.154;2023-11-22T07:57:24;101475.13;;;1.29;100.00
71465;BME280;59274;49.874;9.154;2023-11-22T07:59:50;101471.63;;;1.33;100.00
71465;BME280;59274;49.874;9.154;2023-11-22T08:02:20;101470.25;;;1.36;100.00
71465;BME280;59274;49.874;9.154;2023-11-22T08:04:45;101458.47;;;1.42;100.00
71465;BME280;59274;49.874;9.154;2023-11-22T08:07:11;101462.91;;;1.51;100.00
71465;BME280;59274;49.874;9.154;2023-11-22T08:09:40;101458.03;;;1.58;100.00
71465;BME280;59274;49.874;9.154;2023-11-22T08:12:06;101458.22;;;1.67;100.00
71465;BME280;59274;49.874;9.154;2023-11-22T08:14:32;101461.91;;;1.71;100.00
71465;BME280;59274;49.874;9.154;2023-11-22T08:16:58;101456.81;;;1.75;100.00
71465;BME280;59274;49.874;9.154;2023-11-22T08:19:23;101465.31;;;1.82;100.00
71465;BME280;59274;49.874;9.154;2023-11-22T08:21:50;101471.41;;;1.87;100.00
71465;BME280;59274;49.874;9.154;2023-11-22T08:24:15;101475.75;;;1.83;100.00
71465;BME280;59274;49.874;9.154;2023-11-22T08:26:40;101470.50;;;1.97;100.00
71465;BME280;59274;49.874;9.154;2023-11-22T08:29:06;101483.72;;;1.88;100.00
71465;BME280;59274;49.874;9.154;2023-11-22T08:31:34;101478.03;;;1.95;100.00
71465;BME280;59274;49.874;9.154;2023-11-22T08:34:01;101483.16;;;1.91;100.00
71465;BME280;59274;49.874;9.154;2023-11-22T08:36:26;101481.16;;;2.02;100.00
71465;BME280;59274;49.874;9.154;2023-11-22T08:38:53;101481.22;;;1.97;100.00
71465;BME280;59274;49.874;9.154;2023-11-22T08:41:20;101480.31;;;2.07;100.00
71465;BME280;59274;49.874;9.154;2023-11-22T08:43:46;101475.13;;;2.15;100.00
71465;BME280;59274;49.874;9.154;2023-11-22T08:46:13;101471.25;;;2.26;100.00
71465;BME280;59274;49.874;9.154;2023-11-22T08:48:39;101459.75;;;2.26;100.00
71465;BME280;59274;49.874;9.154;2023-11-22T08:51:06;101458.34;;;2.28;100.00
71465;BME280;59274;49.874;9.154;2023-11-22T08:53:33;101459.16;;;2.29;100.00
71465;BME280;59274;49.874;9.154;2023-11-22T08:55:58;101466.56;;;2.37;100.00
71465;BME280;59274;49.874;9.154;2023-11-22T08:58:24;101461.59;;;2.49;100.00
71465;BME280;59274;49.874;9.154;2023-11-22T09:00:50;101468.06;;;2.48;100.00
71465;BME280;59274;49.874;9.154;2023-11-22T09:03:16;101475.56;;;2.46;100.00
71465;BME280;59274;49.874;9.154;2023-11-22T09:05:43;101481.78;;;2.42;100.00
71465;BME280;59274;49.874;9.154;2023-11-22T09:08:09;101475.34;;;2.43;100.00
71465;BME280;59274;49.874;9.154;2023-11-22T09:10:38;101481.56;;;2.62;100.00
71465;BME280;59274;49.874;9.154;2023-11-22T09:13:04;101478.34;;;2.60;100.00
71465;BME280;59274;49.874;9.154;2023-11-22T09:15:31;101487.63;;;2.67;100.00
71465;BME280;59274;49.874;9.154;2023-11-22T09:17:59;101481.00;;;2.84;100.00
71465;BME280;59274;49.874;9.154;2023-11-22T09:20:25;101492.56;;;2.79;100.00
71465;BME280;59274;49.874;9.154;2023-11-22T09:22:51;101500.88;;;2.59;100.00
71465;BME280;59274;49.874;9.154;2023-11-22T09:25:20;101499.16;;;2.68;100.00
71465;BME280;59274;49.874;9.154;2023-11-22T09:27:47;101499.34;;;2.77;100.00
71465;BME280;59274;49.874;9.154;2023-11-22T09:30:14;101501.84;;;2.87;100.00
71465;BME280;59274;49.874;9.154;2023-11-22T09:33:01;101514.13;;;2.93;100.00
71465;BME280;59274;49.874;9.154;2023-11-22T09:35:27;101512.38;;;3.02;100.00
71465;BME280;59274;49.874;9.154;2023-11-22T09:37:55;101513.91;;;3.08;100.00
71465;BME280;59274;49.874;9.154;2023-11-22T09:40:22;101511.47;;;3.11;100.00
71465;BME280;59274;49.874;9.154;2023-11-22T09:42:48;101519.28;;;3.08;100.00
71465;BME280;59274;49.874;9.154;2023-11-22T09:45:20;101520.59;;;3.10;100.00
71465;BME280;59274;49.874;9.154;2023-11-22T09:47:45;101529.22;;;3.26;100.00
71465;BME280;59274;49.874;9.154;2023-11-22T09:50:19;101540.97;;;3.30;100.00
71465;BME280;59274;49.874;9.154;2023-11-22T09:52:55;101553.13;;;3.41;100.00
71465;BME280;59274;49.874;9.154;2023-11-22T09:55:27;101544.38;;;3.54;100.00
71465;BME280;59274;49.874;9.154;2023-11-22T09:57:53;101550.50;;;3.74;100.00
71465;BME280;59274;49.874;9.154;2023-11-22T10:00:19;101538.78;;;3.83;100.00
71465;BME280;59274;49.874;9.154;2023-11-22T10:02:47;101538.09;;;3.91;100.00
71465;BME280;59274;49.874;9.154;2023-11-22T10:05:13;101522.19;;;3.95;100.00
71465;BME280;59274;49.874;9.154;2023-11-22T10:07:39;101536.03;;;4.02;100.00
71465;BME280;59274;49.874;9.154;2023-11-22T10:10:10;101535.03;;;3.98;100.00
71465;BME280;59274;49.874;9.154;2023-11-22T10:12:42;101526.38;;;4.01;100.00
71465;BME280;59274;49.874;9.154;2023-11-22T10:15:15;101518.53;;;4.05;100.00
71465;BME280;59274;49.874;9.154;2023-11-22T10:17:47;101518.81;;;4.03;100.00
71465;BME280;59274;49.874;9.154;2023-11-22T10:20:18;101515.34;;;4.16;100.00
71465;BME280;59274;49.874;9.154;2023-11-22T10:22:45;101531.19;;;4.04;100.00
71465;BME280;59274;49.874;9.154;2023-11-22T10:25:14;101547.44;;;3.80;100.00
71465;BME280;59274;49.874;9.154;2023-11-22T10:27:46;101550.81;;;3.86;89.98
71465;BME280;59274;49.874;9.154;2023-11-22T10:30:12;101553.13;;;3.92;91.58
71465;BME280;59274;49.874;9.154;2023-11-22T10:32:38;101557.72;;;3.92;88.64
71465;BME280;59274;49.874;9.154;2023-11-22T10:35:06;101555.78;;;4.11;87.15
71465;BME280;59274;49.874;9.154;2023-11-22T10:37:31;101552.09;;;4.21;86.96
71465;BME280;59274;49.874;9.154;2023-11-22T10:39:57;101551.78;;;4.09;85.22
71465;BME280;59274;49.874;9.154;2023-11-22T10:42:24;101560.53;;;4.14;85.62
71465;BME280;59274;49.874;9.154;2023-11-22T10:44:50;101560.66;;;4.23;82.46
71465;BME280;59274;49.874;9.154;2023-11-22T10:47:15;101572.81;;;4.20;78.14
71465;BME280;59274;49.874;9.154;2023-11-22T10:49:44;101567.34;;;4.12;75.49
71465;BME280;59274;49.874;9.154;2023-11-22T10:52:12;101586.06;;;4.17;77.63
71465;BME280;59274;49.874;9.154;2023-11-22T10:54:44;101576.47;;;3.97;81.31
71465;BME280;59274;49.874;9.154;2023-11-22T10:57:15;101566.69;;;4.01;82.21
71465;BME280;59274;49.874;9.154;2023-11-22T10:59:50;101574.09;;;4.09;84.83
71465;BME280;59274;49.874;9.154;2023-11-22T11:02:21;101577.28;;;4.11;78.48
71465;BME280;59274;49.874;9.154;2023-11-22T11:04:52;101574.13;;;4.23;80.41
71465;BME280;59274;49.874;9.154;2023-11-22T11:07:21;101577.88;;;4.08;75.47
71465;BME280;59274;49.874;9.154;2023-11-22T11:09:51;101579.56;;;4.04;79.10
71465;BME280;59274;49.874;9.154;2023-11-22T11:12:18;101582.28;;;3.85;74.29
71465;BME280;59274;49.874;9.154;2023-11-22T11:14:45;101588.16;;;3.87;80.55
71465;BME280;59274;49.874;9.154;2023-11-22T11:17:12;101586.09;;;3.98;77.68
71465;BME280;59274;49.874;9.154;2023-11-22T11:19:40;101609.78;;;3.96;76.43
71465;BME280;59274;49.874;9.154;2023-11-22T11:22:08;101597.25;;;4.05;74.51
71465;BME280;59274;49.874;9.154;2023-11-22T11:24:39;101606.31;;;3.96;76.88
71465;BME280;59274;49.874;9.154;2023-11-22T11:27:06;101600.75;;;4.06;75.56
71465;BME280;59274;49.874;9.154;2023-11-22T11:29:36;101605.63;;;4.04;73.82
71465;BME280;59274;49.874;9.154;2023-11-22T11:32:31;101602.41;;;3.88;74.95
71465;BME280;59274;49.874;9.154;2023-11-22T11:34:57;101615.41;;;3.81;72.43
71465;BME280;59274;49.874;9.154;2023-11-22T11:37:25;101619.53;;;3.73;73.16
71465;BME280;59274;49.874;9.154;2023-11-22T11:39:50;101620.28;;;3.60;72.42
71465;BME280;59274;49.874;9.154;2023-11-22T11:42:16;101635.75;;;3.68;74.84
71465;BME280;59274;49.874;9.154;2023-11-22T11:47:22;101634.88;;;3.73;73.13
71465;BME280;59274;49.874;9.154;2023-11-22T11:49:49;101635.81;;;3.82;73.81
71465;BME280;59274;49.874;9.154;2023-11-22T11:52:15;101651.41;;;3.80;71.05
71465;BME280;59274;49.874;9.154;2023-11-22T11:54:41;101642.47;;;4.03;73.67
71465;BME280;59274;49.874;9.154;2023-11-22T11:57:07;101645.50;;;4.15;75.32
71465;BME280;59274;49.874;9.154;2023-11-22T11:59:33;101640.78;;;4.07;76.00
71465;BME280;59274;49.874;9.154;2023-11-22T12:02:00;101634.13;;;3.86;75.06
71465;BME280;59274;49.874;9.154;2023-11-22T12:04:25;101633.97;;;3.96;74.34
71465;BME280;59274;49.874;9.154;2023-11-22T12:06:51;101622.38;;;3.82;75.50
71465;BME280;59274;49.874;9.154;2023-11-22T12:09:26;101623.38;;;3.86;75.08
71465;BME280;59274;49.874;9.154;2023-11-22T12:11:54;101619.84;;;3.90;75.38
71465;BME280;59274;49.874;9.154;2023-11-22T12:14:25;101616.97;;;4.01;75.49
71465;BME280;59274;49.874;9.154;2023-11-22T12:16:51;101606.31;;;3.96;73.27
71465;BME280;59274;49.874;9.154;2023-11-22T12:19:28;101608.34;;;4.17;74.36
71465;BME280;59274;49.874;9.154;2023-11-22T12:21:56;101610.69;;;4.05;74.40
71465;BME280;59274;49.874;9.154;2023-11-22T12:24:23;101592.69;;;4.06;76.83
71465;BME280;59274;49.874;9.154;2023-11-22T12:26:50;101586.38;;;3.83;74.11
71465;BME280;59274;49.874;9.154;2023-11-22T12:29:17;101585.09;;;3.94;73.63
71465;BME280;59274;49.874;9.154;2023-11-22T12:31:48;101579.19;;;4.11;77.57
71465;BME280;59274;49.874;9.154;2023-11-22T12:34:16;101571.03;;;4.29;76.02
71465;BME280;59274;49.874;9.154;2023-11-22T12:36:42;101577.00;;;4.26;75.55
71465;BME280;59274;49.874;9.154;2023-11-22T12:39:09;101591.16;;;4.18;74.63
71465;BME280;59274;49.874;9.154;2023-11-22T12:41:46;101578.09;;;4.25;74.38
71465;BME280;59274;49.874;9.154;2023-11-22T12:44:12;101581.78;;;4.29;72.05
71465;BME280;59274;49.874;9.154;2023-11-22T12:46:51;101585.84;;;4.27;72.11
71465;BME280;59274;49.874;9.154;2023-11-22T12:49:25;101583.09;;;4.32;72.65
71465;BME280;59274;49.874;9.154;2023-11-22T12:51:53;101583.94;;;4.14;73.75
71465;BME280;59274;49.874;9.154;2023-11-22T12:54:19;101583.34;;;4.03;72.69
71465;BME280;59274;49.874;9.154;2023-11-22T12:56:48;101587.91;;;4.03;74.48
71465;BME280;59274;49.874;9.154;2023-11-22T12:59:14;101593.56;;;4.01;75.22
71465;BME280;59274;49.874;9.154;2023-11-22T13:01:39;101588.72;;;4.03;72.65
71465;BME280;59274;49.874;9.154;2023-11-22T13:04:05;101572.59;;;4.03;73.16